sensor_id;sensor_type;location;lat;lon;timestamp;temperature;humidity
33207;DHT22;19565;46.602;11.534;2022-10-16T00:01:13;16.00;99.90
33207;DHT22;19565;46.602;11.534;2022-10-16T00:03:43;16.00;99.90
33207;DHT22;19565;46.602;11.534;2022-10-16T00:06:13;16.00;99.90
33207;DHT22;19565;46.602;11.534;2022-10-16T00:08:42;16.00;99.90
33207;DHT22;19565;46.602;11.534;2022-10-16T00:11:12;16.00;99.90
33207;DHT22;19565;46.602;11.534;2022-10-16T00:13:42;16.00;99.90
33207;DHT22;19565;46.602;11.534;2022-10-16T00:16:12;16.00;99.90
33207;DHT22;19565;46.602;11.534;2022-10-16T00:18:41;16.00;99.90
33207;DHT22;19565;46.602;11.534;2022-10-16T00:21:12;16.00;99.90
33207;DHT22;19565;46.602;11.534;2022-10-16T00:23:42;15.90;99.90
33207;DHT22;19565;46.602;11.534;2022-10-16T00:26:13;15.90;99.90
33207;DHT22;19565;46.602;11.534;2022-10-16T00:28:41;15.90;99.90
33207;DHT22;19565;46.602;11.534;2022-10-16T00:31:10;15.90;99.90
33207;DHT22;19565;46.602;11.534;2022-10-16T00:33:40;15.90;99.90
33207;DHT22;19565;46.602;11.534;2022-10-16T00:36:10;15.90;99.90
33207;DHT22;19565;46.602;11.534;2022-10-16T00:38:39;16.00;99.90
33207;DHT22;19565;46.602;11.534;2022-10-16T00:41:11;16.00;99.90
33207;DHT22;19565;46.602;11.534;2022-10-16T00:43:41;16.00;99.90
33207;DHT22;19565;46.602;11.534;2022-10-16T00:46:15;15.90;99.90
33207;DHT22;19565;46.602;11.534;2022-10-16T00:48:48;15.90;99.90
33207;DHT22;19565;46.602;11.534;2022-10-16T00:51:19;15.90;99.90
33207;DHT22;19565;46.602;11.534;2022-10-16T00:53:50;16.00;99.90
33207;DHT22;19565;46.602;11.534;2022-10-16T00:56:19;16.00;99.90
33207;DHT22;19565;46.602;11.534;2022-10-16T00:58:47;16.00;99.90
33207;DHT22;19565;46.602;11.534;2022-10-16T01:01:15;16.00;99.90
33207;DHT22;19565;46.602;11.534;2022-10-16T01:03:44;15.90;99.90
33207;DHT22;19565;46.602;11.534;2022-10-16T01:06:21;16.00;99.90
33207;DHT22;19565;46.602;11.534;2022-10-16T01:09:07;16.00;99.90
33207;DHT22;19565;46.602;11.534;2022-10-16T01:11:44;16.00;99.90
33207;DHT22;19565;46.602;11.534;2022-10-16T01:14:21;16.00;99.90
33207;DHT22;19565;46.602;11.534;2022-10-16T01:16:55;16.00;99.90
33207;DHT22;19565;46.602;11.534;2022-10-16T01:19:41;16.00;99.90
33207;DHT22;19565;46.602;11.534;2022-10-16T01:22:12;16.00;99.90
33207;DHT22;19565;46.602;11.534;2022-10-16T01:24:44;16.00;99.90
33207;DHT22;19565;46.602;11.534;2022-10-16T01:27:21;15.90;99.90
33207;DHT22;19565;46.602;11.534;2022-10-16T01:29:53;15.90;99.90
33207;DHT22;19565;46.602;11.534;2022-10-16T01:32:27;15.90;99.90
33207;DHT22;19565;46.602;11.534;2022-10-16T01:35:00;15.90;99.90
33207;DHT22;19565;46.602;11.534;2022-10-16T01:37:35;15.80;99.90
33207;DHT22;19565;46.602;11.534;2022-10-16T01:40:07;15.80;99.90
33207;DHT22;19565;46.602;11.534;2022-10-16T01:42:41;15.70;99.90
33207;DHT22;19565;46.602;11.534;2022-10-16T01:45:13;15.70;99.90
33207;DHT22;19565;46.602;11.534;2022-10-16T01:47:43;15.50;99.90
33207;DHT22;19565;46.602;11.534;2022-10-16T01:50:12;15.50;99.90
33207;DHT22;19565;46.602;11.534;2022-10-16T01:52:45;15.50;99.90
33207;DHT22;19565;46.602;11.534;2022-10-16T01:55:18;15.50;99.90
33207;DHT22;19565;46.602;11.534;2022-10-16T01:57:50;15.40;99.90
33207;DHT22;19565;46.602;11.534;2022-10-16T02:00:20;15.40;99.90
33207;DHT22;19565;46.602;11.534;2022-10-16T02:02:51;15.50;99.90
33207;DHT22;19565;46.602;11.534;2022-10-16T02:05:25;15.50;99.90
33207;DHT22;19565;46.602;11.534;2022-10-16T02:07:54;15.50;99.90
33207;DHT22;19565;46.602;11.534;2022-10-16T02:10:26;15.50;99.90
33207;DHT22;19565;46.602;11.534;2022-10-16T02:13:09;15.40;99.90
33207;DHT22;19565;46.602;11.534;2022-10-16T02:15:40;15.40;99.90
33207;DHT22;19565;46.602;11.534;2022-10-16T02:18:09;15.40;99.90
33207;DHT22;19565;46.602;11.534;2022-10-16T02:20:40;15.40;99.90
33207;DHT22;19565;46.602;11.534;2022-10-16T02:23:15;15.30;99.90
33207;DHT22;19565;46.602;11.534;2022-10-16T02:25:47;15.40;99.90
33207;DHT22;19565;46.602;11.534;2022-10-16T02:28:21;15.30;99.90
33207;DHT22;19565;46.602;11.534;2022-10-16T02:30:52;15.30;99.90
33207;DHT22;19565;46.602;11.534;2022-10-16T02:33:24;15.30;99.90
33207;DHT22;19565;46.602;11.534;2022-10-16T02:35:54;15.40;99.90
33207;DHT22;19565;46.602;11.534;2022-10-16T02:38:23;15.30;99.90
33207;DHT22;19565;46.602;11.534;2022-10-16T02:40:52;15.30;99.90
33207;DHT22;19565;46.602;11.534;2022-10-16T02:43:22;15.30;99.90
33207;DHT22;19565;46.602;11.534;2022-10-16T02:45:51;15.20;99.90
33207;DHT22;19565;46.602;11.534;2022-10-16T02:48:19;15.10;99.90
33207;DHT22;19565;46.602;11.534;2022-10-16T02:50:47;15.00;99.90
33207;DHT22;19565;46.602;11.534;2022-10-16T02:53:17;14.90;99.90
33207;DHT22;19565;46.602;11.534;2022-10-16T02:55:45;14.90;99.90
33207;DHT22;19565;46.602;11.534;2022-10-16T02:58:13;14.90;99.90
33207;DHT22;19565;46.602;11.534;2022-10-16T03:00:43;15.00;99.90
33207;DHT22;19565;46.602;11.534;2022-10-16T03:03:11;15.00;99.90
33207;DHT22;19565;46.602;11.534;2022-10-16T03:05:39;15.20;99.90
33207;DHT22;19565;46.602;11.534;2022-10-16T03:08:07;15.20;99.90
33207;DHT22;19565;46.602;11.534;2022-10-16T03:10:35;15.20;99.90
33207;DHT22;19565;46.602;11.534;2022-10-16T03:13:03;15.20;99.90
33207;DHT22;19565;46.602;11.534;2022-10-16T03:15:31;15.20;99.90
33207;DHT22;19565;46.602;11.534;2022-10-16T03:18:00;15.10;99.90
33207;DHT22;19565;46.602;11.534;2022-10-16T03:20:28;15.10;99.90
33207;DHT22;19565;46.602;11.534;2022-10-16T03:22:56;15.00;99.90
33207;DHT22;19565;46.602;11.534;2022-10-16T03:25:25;15.10;99.90
33207;DHT22;19565;46.602;11.534;2022-10-16T03:27:52;15.00;99.90
33207;DHT22;19565;46.602;11.534;2022-10-16T03:30:20;15.00;99.90
33207;DHT22;19565;46.602;11.534;2022-10-16T03:32:48;14.90;99.90
33207;DHT22;19565;46.602;11.534;2022-10-16T03:35:22;15.00;99.90
33207;DHT22;19565;46.602;11.534;2022-10-16T03:37:50;15.10;99.90
33207;DHT22;19565;46.602;11.534;2022-10-16T03:40:19;15.10;99.90
33207;DHT22;19565;46.602;11.534;2022-10-16T03:42:47;15.00;99.90
33207;DHT22;19565;46.602;11.534;2022-10-16T03:45:15;15.00;99.90
33207;DHT22;19565;46.602;11.534;2022-10-16T03:47:43;15.10;99.90
33207;DHT22;19565;46.602;11.534;2022-10-16T03:50:11;15.10;99.90
33207;DHT22;19565;46.602;11.534;2022-10-16T03:52:40;15.10;99.90
33207;DHT22;19565;46.602;11.534;2022-10-16T03:55:08;15.00;99.90
33207;DHT22;19565;46.602;11.534;2022-10-16T03:57:36;15.10;99.90
33207;DHT22;19565;46.602;11.534;2022-10-16T04:00:05;15.00;99.90
33207;DHT22;19565;46.602;11.534;2022-10-16T04:02:33;15.00;99.90
33207;DHT22;19565;46.602;11.534;2022-10-16T04:05:02;15.00;99.90
33207;DHT22;19565;46.602;11.534;2022-10-16T04:07:29;14.90;99.90
33207;DHT22;19565;46.602;11.534;2022-10-16T04:09:59;14.90;99.90
33207;DHT22;19565;46.602;11.534;2022-10-16T04:12:27;14.90;99.90
33207;DHT22;19565;46.602;11.534;2022-10-16T04:14:55;14.90;99.90
33207;DHT22;19565;46.602;11.534;2022-10-16T04:17:23;14.90;99.90
33207;DHT22;19565;46.602;11.534;2022-10-16T04:19:51;14.90;99.90
33207;DHT22;19565;46.602;11.534;2022-10-16T04:22:19;14.90;99.90
33207;DHT22;19565;46.602;11.534;2022-10-16T04:24:47;14.90;99.90
33207;DHT22;19565;46.602;11.534;2022-10-16T04:27:16;14.80;99.90
33207;DHT22;19565;46.602;11.534;2022-10-16T04:29:46;14.80;99.90
33207;DHT22;19565;46.602;11.534;2022-10-16T04:32:14;14.90;99.90
33207;DHT22;19565;46.602;11.534;2022-10-16T04:34:42;15.00;99.90
33207;DHT22;19565;46.602;11.534;2022-10-16T04:37:10;15.10;99.90
33207;DHT22;19565;46.602;11.534;2022-10-16T04:39:38;15.20;99.90
33207;DHT22;19565;46.602;11.534;2022-10-16T04:42:06;15.20;99.90
33207;DHT22;19565;46.602;11.534;2022-10-16T04:44:36;15.20;99.90
33207;DHT22;19565;46.602;11.534;2022-10-16T04:47:04;15.30;99.90
33207;DHT22;19565;46.602;11.534;2022-10-16T04:49:32;15.30;99.90
33207;DHT22;19565;46.602;11.534;2022-10-16T04:52:00;15.40;99.90
33207;DHT22;19565;46.602;11.534;2022-10-16T04:54:28;15.30;99.90
33207;DHT22;19565;46.602;11.534;2022-10-16T04:56:56;15.30;99.90
33207;DHT22;19565;46.602;11.534;2022-10-16T04:59:24;15.40;99.90
33207;DHT22;19565;46.602;11.534;2022-10-16T05:01:53;15.40;99.90
33207;DHT22;19565;46.602;11.534;2022-10-16T05:04:21;15.50;99.90
33207;DHT22;19565;46.602;11.534;2022-10-16T05:06:49;15.50;99.90
33207;DHT22;19565;46.602;11.534;2022-10-16T05:09:17;15.50;99.90
33207;DHT22;19565;46.602;11.534;2022-10-16T05:11:47;15.50;99.90
33207;DHT22;19565;46.602;11.534;2022-10-16T05:14:15;15.50;99.90
33207;DHT22;19565;46.602;11.534;2022-10-16T05:16:44;15.50;99.90
33207;DHT22;19565;46.602;11.534;2022-10-16T05:19:16;15.50;99.90
33207;DHT22;19565;46.602;11.534;2022-10-16T05:21:59;15.30;99.90
33207;DHT22;19565;46.602;11.534;2022-10-16T05:24:27;15.30;99.90
33207;DHT22;19565;46.602;11.534;2022-10-16T05:26:55;15.20;99.90
33207;DHT22;19565;46.602;11.534;2022-10-16T05:29:23;15.20;99.90
33207;DHT22;19565;46.602;11.534;2022-10-16T05:31:52;15.20;99.90
33207;DHT22;19565;46.602;11.534;2022-10-16T05:34:22;15.20;99.90
33207;DHT22;19565;46.602;11.534;2022-10-16T05:36:50;15.30;99.90
33207;DHT22;19565;46.602;11.534;2022-10-16T05:39:18;15.40;99.90
33207;DHT22;19565;46.602;11.534;2022-10-16T05:41:46;15.40;99.90
33207;DHT22;19565;46.602;11.534;2022-10-16T05:44:14;15.40;99.90
33207;DHT22;19565;46.602;11.534;2022-10-16T05:46:42;15.50;99.90
33207;DHT22;19565;46.602;11.534;2022-10-16T05:49:10;15.50;99.90
33207;DHT22;19565;46.602;11.534;2022-10-16T05:51:40;15.50;99.90
33207;DHT22;19565;46.602;11.534;2022-10-16T05:54:08;15.40;99.90
33207;DHT22;19565;46.602;11.534;2022-10-16T05:56:36;15.50;99.90
33207;DHT22;19565;46.602;11.534;2022-10-16T05:59:05;15.50;99.90
33207;DHT22;19565;46.602;11.534;2022-10-16T06:01:33;15.40;99.90
33207;DHT22;19565;46.602;11.534;2022-10-16T06:04:02;15.40;99.90
33207;DHT22;19565;46.602;11.534;2022-10-16T06:06:30;15.40;99.90
33207;DHT22;19565;46.602;11.534;2022-10-16T06:08:59;15.40;99.90
33207;DHT22;19565;46.602;11.534;2022-10-16T06:11:28;15.40;99.90
33207;DHT22;19565;46.602;11.534;2022-10-16T06:13:59;15.40;99.90
33207;DHT22;19565;46.602;11.534;2022-10-16T06:16:29;15.40;99.90
33207;DHT22;19565;46.602;11.534;2022-10-16T06:18:57;15.40;99.90
33207;DHT22;19565;46.602;11.534;2022-10-16T06:21:27;15.40;99.90
33207;DHT22;19565;46.602;11.534;2022-10-16T06:23:56;15.40;99.90
33207;DHT22;19565;46.602;11.534;2022-10-16T06:26:27;15.40;99.90
33207;DHT22;19565;46.602;11.534;2022-10-16T06:28:56;15.50;99.90
33207;DHT22;19565;46.602;11.534;2022-10-16T06:31:26;15.50;99.90
33207;DHT22;19565;46.602;11.534;2022-10-16T06:33:56;15.50;99.90
33207;DHT22;19565;46.602;11.534;2022-10-16T06:36:26;15.50;99.90
33207;DHT22;19565;46.602;11.534;2022-10-16T06:38:55;15.50;99.90
33207;DHT22;19565;46.602;11.534;2022-10-16T06:41:23;15.50;99.90
33207;DHT22;19565;46.602;11.534;2022-10-16T06:43:52;15.60;99.90
33207;DHT22;19565;46.602;11.534;2022-10-16T06:46:22;15.50;99.90
33207;DHT22;19565;46.602;11.534;2022-10-16T06:48:50;15.60;99.90
33207;DHT22;19565;46.602;11.534;2022-10-16T06:51:20;15.60;99.90
33207;DHT22;19565;46.602;11.534;2022-10-16T06:53:49;15.60;99.90
33207;DHT22;19565;46.602;11.534;2022-10-16T06:56:34;15.60;99.90
33207;DHT22;19565;46.602;11.534;2022-10-16T06:59:04;15.70;99.90
33207;DHT22;19565;46.602;11.534;2022-10-16T07:01:32;15.70;99.90
33207;DHT22;19565;46.602;11.534;2022-10-16T07:04:01;15.70;99.90
33207;DHT22;19565;46.602;11.534;2022-10-16T07:06:32;15.70;99.90
33207;DHT22;19565;46.602;11.534;2022-10-16T07:09:02;15.80;99.90
33207;DHT22;19565;46.602;11.534;2022-10-16T07:11:31;15.80;99.90
33207;DHT22;19565;46.602;11.534;2022-10-16T07:13:59;15.80;99.90
33207;DHT22;19565;46.602;11.534;2022-10-16T07:16:30;15.70;99.90
33207;DHT22;19565;46.602;11.534;2022-10-16T07:19:00;15.80;99.90
33207;DHT22;19565;46.602;11.534;2022-10-16T07:21:29;15.70;99.90
33207;DHT22;19565;46.602;11.534;2022-10-16T07:24:03;15.80;99.90
33207;DHT22;19565;46.602;11.534;2022-10-16T07:26:34;15.80;99.90
33207;DHT22;19565;46.602;11.534;2022-10-16T07:29:02;15.90;99.90
33207;DHT22;19565;46.602;11.534;2022-10-16T07:31:32;15.90;99.90
33207;DHT22;19565;46.602;11.534;2022-10-16T07:34:00;16.00;99.90
33207;DHT22;19565;46.602;11.534;2022-10-16T07:36:28;16.00;99.90
33207;DHT22;19565;46.602;11.534;2022-10-16T07:38:57;16.10;99.90
33207;DHT22;19565;46.602;11.534;2022-10-16T07:41:26;16.00;99.90
33207;DHT22;19565;46.602;11.534;2022-10-16T07:43:55;16.10;99.90
33207;DHT22;19565;46.602;11.534;2022-10-16T07:46:27;16.10;99.90
33207;DHT22;19565;46.602;11.534;2022-10-16T07:48:56;16.10;99.90
33207;DHT22;19565;46.602;11.534;2022-10-16T07:51:25;16.20;99.90
33207;DHT22;19565;46.602;11.534;2022-10-16T07:53:54;16.20;99.90
33207;DHT22;19565;46.602;11.534;2022-10-16T07:56:22;16.20;99.90
33207;DHT22;19565;46.602;11.534;2022-10-16T07:58:51;16.20;99.90
33207;DHT22;19565;46.602;11.534;2022-10-16T08:01:19;16.20;99.90
33207;DHT22;19565;46.602;11.534;2022-10-16T08:03:49;16.20;99.90
33207;DHT22;19565;46.602;11.534;2022-10-16T08:06:20;16.20;99.90
33207;DHT22;19565;46.602;11.534;2022-10-16T08:08:54;16.20;99.90
33207;DHT22;19565;46.602;11.534;2022-10-16T08:11:22;16.20;99.90
33207;DHT22;19565;46.602;11.534;2022-10-16T08:13:50;16.20;99.90
33207;DHT22;19565;46.602;11.534;2022-10-16T08:16:18;16.20;99.90
33207;DHT22;19565;46.602;11.534;2022-10-16T08:18:46;16.30;99.90
33207;DHT22;19565;46.602;11.534;2022-10-16T08:21:17;16.20;99.90
33207;DHT22;19565;46.602;11.534;2022-10-16T08:23:49;16.20;99.90
33207;DHT22;19565;46.602;11.534;2022-10-16T08:26:24;16.20;99.90
33207;DHT22;19565;46.602;11.534;2022-10-16T08:28:52;16.20;99.90
33207;DHT22;19565;46.602;11.534;2022-10-16T08:31:21;16.30;99.90
33207;DHT22;19565;46.602;11.534;2022-10-16T08:33:50;16.30;99.90
33207;DHT22;19565;46.602;11.534;2022-10-16T08:36:19;16.30;99.90
33207;DHT22;19565;46.602;11.534;2022-10-16T08:38:50;16.40;99.90
33207;DHT22;19565;46.602;11.534;2022-10-16T08:45:05;16.50;99.90
33207;DHT22;19565;46.602;11.534;2022-10-16T08:47:45;16.60;99.90
33207;DHT22;19565;46.602;11.534;2022-10-16T08:50:22;16.60;99.90
33207;DHT22;19565;46.602;11.534;2022-10-16T08:52:51;16.70;99.90
33207;DHT22;19565;46.602;11.534;2022-10-16T08:55:31;16.80;99.90
33207;DHT22;19565;46.602;11.534;2022-10-16T08:58:00;16.90;99.90
33207;DHT22;19565;46.602;11.534;2022-10-16T09:00:29;16.90;99.90
33207;DHT22;19565;46.602;11.534;2022-10-16T09:03:04;17.00;99.90
33207;DHT22;19565;46.602;11.534;2022-10-16T09:09:03;17.10;99.90
33207;DHT22;19565;46.602;11.534;2022-10-16T09:11:43;17.20;99.90
33207;DHT22;19565;46.602;11.534;2022-10-16T09:14:36;17.30;99.90
33207;DHT22;19565;46.602;11.534;2022-10-16T09:17:20;17.30;99.90
33207;DHT22;19565;46.602;11.534;2022-10-16T09:19:55;17.30;99.90
33207;DHT22;19565;46.602;11.534;2022-10-16T09:22:27;17.30;99.90
33207;DHT22;19565;46.602;11.534;2022-10-16T09:24:59;17.30;99.90
33207;DHT22;19565;46.602;11.534;2022-10-16T09:27:30;17.30;99.90
33207;DHT22;19565;46.602;11.534;2022-10-16T09:29:58;17.40;99.90
33207;DHT22;19565;46.602;11.534;2022-10-16T09:32:27;17.40;99.90
33207;DHT22;19565;46.602;11.534;2022-10-16T09:34:55;17.40;99.90
33207;DHT22;19565;46.602;11.534;2022-10-16T09:37:24;17.40;99.90
33207;DHT22;19565;46.602;11.534;2022-10-16T09:39:54;17.40;99.90
33207;DHT22;19565;46.602;11.534;2022-10-16T09:42:27;17.40;99.90
33207;DHT22;19565;46.602;11.534;2022-10-16T09:44:57;17.40;99.90
33207;DHT22;19565;46.602;11.534;2022-10-16T09:47:26;17.40;99.90
33207;DHT22;19565;46.602;11.534;2022-10-16T09:49:57;17.50;99.90
33207;DHT22;19565;46.602;11.534;2022-10-16T09:52:29;17.50;99.90
33207;DHT22;19565;46.602;11.534;2022-10-16T09:54:59;17.60;99.90
33207;DHT22;19565;46.602;11.534;2022-10-16T09:57:28;17.60;99.90
33207;DHT22;19565;46.602;11.534;2022-10-16T09:59:58;17.60;99.90
33207;DHT22;19565;46.602;11.534;2022-10-16T10:02:30;17.70;99.90
33207;DHT22;19565;46.602;11.534;2022-10-16T10:05:00;17.70;99.90
33207;DHT22;19565;46.602;11.534;2022-10-16T10:07:32;17.80;99.90
33207;DHT22;19565;46.602;11.534;2022-10-16T10:10:03;17.80;99.90
33207;DHT22;19565;46.602;11.534;2022-10-16T10:12:33;17.80;99.90
33207;DHT22;19565;46.602;11.534;2022-10-16T10:15:09;17.90;99.90
33207;DHT22;19565;46.602;11.534;2022-10-16T10:17:46;18.00;99.90
33207;DHT22;19565;46.602;11.534;2022-10-16T10:20:24;18.00;99.90
33207;DHT22;19565;46.602;11.534;2022-10-16T10:22:52;18.00;99.40
33207;DHT22;19565;46.602;11.534;2022-10-16T10:25:34;18.00;98.60
33207;DHT22;19565;46.602;11.534;2022-10-16T10:28:17;18.10;98.40
33207;DHT22;19565;46.602;11.534;2022-10-16T10:30:56;18.10;98.40
33207;DHT22;19565;46.602;11.534;2022-10-16T10:33:28;18.20;97.70
33207;DHT22;19565;46.602;11.534;2022-10-16T10:36:07;18.20;97.50
33207;DHT22;19565;46.602;11.534;2022-10-16T10:38:45;18.30;97.20
33207;DHT22;19565;46.602;11.534;2022-10-16T10:44:26;18.30;95.30
33207;DHT22;19565;46.602;11.534;2022-10-16T10:47:00;18.40;94.70
33207;DHT22;19565;46.602;11.534;2022-10-16T10:49:43;18.40;94.50
33207;DHT22;19565;46.602;11.534;2022-10-16T10:52:33;18.50;95.30
33207;DHT22;19565;46.602;11.534;2022-10-16T10:55:11;18.50;95.00
33207;DHT22;19565;46.602;11.534;2022-10-16T10:57:49;18.60;94.90
33207;DHT22;19565;46.602;11.534;2022-10-16T11:00:22;18.60;94.10
33207;DHT22;19565;46.602;11.534;2022-10-16T11:03:04;18.70;94.20
33207;DHT22;19565;46.602;11.534;2022-10-16T11:05:41;18.70;94.30
33207;DHT22;19565;46.602;11.534;2022-10-16T11:08:15;18.80;94.10
33207;DHT22;19565;46.602;11.534;2022-10-16T11:10:49;18.90;93.90
33207;DHT22;19565;46.602;11.534;2022-10-16T11:13:23;18.90;94.10
33207;DHT22;19565;46.602;11.534;2022-10-16T11:15:55;18.90;94.20
33207;DHT22;19565;46.602;11.534;2022-10-16T11:18:32;19.00;94.00
33207;DHT22;19565;46.602;11.534;2022-10-16T11:21:05;19.10;93.30
33207;DHT22;19565;46.602;11.534;2022-10-16T11:23:40;19.10;93.40
33207;DHT22;19565;46.602;11.534;2022-10-16T11:26:16;19.10;93.60
33207;DHT22;19565;46.602;11.534;2022-10-16T11:28:49;19.20;93.40
33207;DHT22;19565;46.602;11.534;2022-10-16T11:31:24;19.20;93.70
33207;DHT22;19565;46.602;11.534;2022-10-16T11:34:02;19.30;93.60
33207;DHT22;19565;46.602;11.534;2022-10-16T11:36:38;19.30;93.30
33207;DHT22;19565;46.602;11.534;2022-10-16T11:39:16;19.30;93.50
33207;DHT22;19565;46.602;11.534;2022-10-16T11:41:49;19.40;93.10
33207;DHT22;19565;46.602;11.534;2022-10-16T11:44:33;19.40;93.30
33207;DHT22;19565;46.602;11.534;2022-10-16T11:47:09;19.40;92.70
33207;DHT22;19565;46.602;11.534;2022-10-16T11:50:20;19.50;92.30
33207;DHT22;19565;46.602;11.534;2022-10-16T11:52:53;19.50;92.00
33207;DHT22;19565;46.602;11.534;2022-10-16T11:55:27;19.50;92.10
33207;DHT22;19565;46.602;11.534;2022-10-16T11:58:01;19.50;92.20
33207;DHT22;19565;46.602;11.534;2022-10-16T12:00:37;19.50;92.30
33207;DHT22;19565;46.602;11.534;2022-10-16T12:03:14;19.50;91.40
33207;DHT22;19565;46.602;11.534;2022-10-16T12:05:58;19.60;91.40
33207;DHT22;19565;46.602;11.534;2022-10-16T12:08:27;19.60;91.00
33207;DHT22;19565;46.602;11.534;2022-10-16T12:11:06;19.70;91.20
33207;DHT22;19565;46.602;11.534;2022-10-16T12:13:36;19.70;91.10
33207;DHT22;19565;46.602;11.534;2022-10-16T12:16:21;19.70;91.20
33207;DHT22;19565;46.602;11.534;2022-10-16T12:19:03;19.80;91.50
33207;DHT22;19565;46.602;11.534;2022-10-16T12:21:39;19.80;91.70
33207;DHT22;19565;46.602;11.534;2022-10-16T12:24:21;19.90;91.00
33207;DHT22;19565;46.602;11.534;2022-10-16T12:26:50;19.90;90.90
33207;DHT22;19565;46.602;11.534;2022-10-16T12:29:28;19.90;90.60
33207;DHT22;19565;46.602;11.534;2022-10-16T12:31:57;20.00;90.70
33207;DHT22;19565;46.602;11.534;2022-10-16T12:34:29;20.00;90.70
33207;DHT22;19565;46.602;11.534;2022-10-16T12:37:11;20.10;90.90
33207;DHT22;19565;46.602;11.534;2022-10-16T12:39:40;20.10;90.80
33207;DHT22;19565;46.602;11.534;2022-10-16T12:42:34;20.10;90.40
33207;DHT22;19565;46.602;11.534;2022-10-16T12:45:22;20.10;90.50
33207;DHT22;19565;46.602;11.534;2022-10-16T12:47:53;20.20;90.80
33207;DHT22;19565;46.602;11.534;2022-10-16T12:50:31;20.20;90.40
33207;DHT22;19565;46.602;11.534;2022-10-16T12:53:03;20.20;90.20
33207;DHT22;19565;46.602;11.534;2022-10-16T12:55:42;20.20;90.10
33207;DHT22;19565;46.602;11.534;2022-10-16T12:58:33;20.20;90.10
33207;DHT22;19565;46.602;11.534;2022-10-16T13:01:09;20.30;89.90
33207;DHT22;19565;46.602;11.534;2022-10-16T13:04:17;20.30;90.00
33207;DHT22;19565;46.602;11.534;2022-10-16T13:06:55;20.40;90.50
33207;DHT22;19565;46.602;11.534;2022-10-16T13:09:38;20.40;90.50
33207;DHT22;19565;46.602;11.534;2022-10-16T13:12:22;20.40;90.40
33207;DHT22;19565;46.602;11.534;2022-10-16T13:15:11;20.40;90.70
33207;DHT22;19565;46.602;11.534;2022-10-16T13:17:51;20.40;90.50
33207;DHT22;19565;46.602;11.534;2022-10-16T13:20:28;20.40;90.20
33207;DHT22;19565;46.602;11.534;2022-10-16T13:23:05;20.40;90.50
33207;DHT22;19565;46.602;11.534;2022-10-16T13:25:48;20.50;90.70
33207;DHT22;19565;46.602;11.534;2022-10-16T13:28:21;20.50;90.70
33207;DHT22;19565;46.602;11.534;2022-10-16T13:30:52;20.50;90.80
33207;DHT22;19565;46.602;11.534;2022-10-16T13:33:26;20.50;90.40
33207;DHT22;19565;46.602;11.534;2022-10-16T13:35:57;20.50;90.70
33207;DHT22;19565;46.602;11.534;2022-10-16T13:38:26;20.60;91.00
33207;DHT22;19565;46.602;11.534;2022-10-16T13:40:57;20.60;90.70
33207;DHT22;19565;46.602;11.534;2022-10-16T13:43:31;20.60;90.60
33207;DHT22;19565;46.602;11.534;2022-10-16T13:46:02;20.70;90.50
33207;DHT22;19565;46.602;11.534;2022-10-16T13:48:31;20.70;90.90
33207;DHT22;19565;46.602;11.534;2022-10-16T13:51:05;20.80;90.40
33207;DHT22;19565;46.602;11.534;2022-10-16T13:53:34;20.80;90.50
33207;DHT22;19565;46.602;11.534;2022-10-16T13:56:06;20.80;90.30
33207;DHT22;19565;46.602;11.534;2022-10-16T13:58:35;20.80;90.50
33207;DHT22;19565;46.602;11.534;2022-10-16T14:01:05;20.80;90.50
33207;DHT22;19565;46.602;11.534;2022-10-16T14:03:34;20.80;90.70
33207;DHT22;19565;46.602;11.534;2022-10-16T14:06:05;20.80;90.80
33207;DHT22;19565;46.602;11.534;2022-10-16T14:08:35;20.90;91.10
33207;DHT22;19565;46.602;11.534;2022-10-16T14:11:04;20.90;90.90
33207;DHT22;19565;46.602;11.534;2022-10-16T14:13:36;20.90;91.00
33207;DHT22;19565;46.602;11.534;2022-10-16T14:16:07;20.80;91.30
33207;DHT22;19565;46.602;11.534;2022-10-16T14:18:37;20.70;91.60
33207;DHT22;19565;46.602;11.534;2022-10-16T14:21:11;20.60;91.30
33207;DHT22;19565;46.602;11.534;2022-10-16T14:23:41;20.50;91.50
33207;DHT22;19565;46.602;11.534;2022-10-16T14:26:16;20.50;91.60
33207;DHT22;19565;46.602;11.534;2022-10-16T14:28:46;20.40;91.70
33207;DHT22;19565;46.602;11.534;2022-10-16T14:31:26;20.40;91.60
33207;DHT22;19565;46.602;11.534;2022-10-16T14:33:55;20.40;91.80
33207;DHT22;19565;46.602;11.534;2022-10-16T14:36:24;20.30;91.90
33207;DHT22;19565;46.602;11.534;2022-10-16T14:39:04;20.30;91.90
33207;DHT22;19565;46.602;11.534;2022-10-16T14:41:41;20.30;92.10
33207;DHT22;19565;46.602;11.534;2022-10-16T14:44:12;20.20;92.50
33207;DHT22;19565;46.602;11.534;2022-10-16T14:46:41;20.20;92.80
33207;DHT22;19565;46.602;11.534;2022-10-16T14:49:16;20.10;92.20
33207;DHT22;19565;46.602;11.534;2022-10-16T14:51:46;20.10;92.60
33207;DHT22;19565;46.602;11.534;2022-10-16T14:54:16;20.10;92.60
33207;DHT22;19565;46.602;11.534;2022-10-16T14:56:48;20.10;92.90
33207;DHT22;19565;46.602;11.534;2022-10-16T14:59:20;20.00;92.90
33207;DHT22;19565;46.602;11.534;2022-10-16T15:01:51;20.00;92.90
33207;DHT22;19565;46.602;11.534;2022-10-16T15:04:19;20.00;92.70
33207;DHT22;19565;46.602;11.534;2022-10-16T15:06:47;19.90;92.80
33207;DHT22;19565;46.602;11.534;2022-10-16T15:09:15;19.90;92.90
33207;DHT22;19565;46.602;11.534;2022-10-16T15:11:43;19.90;92.80
33207;DHT22;19565;46.602;11.534;2022-10-16T15:14:14;19.90;93.70
33207;DHT22;19565;46.602;11.534;2022-10-16T15:16:42;19.70;93.90
33207;DHT22;19565;46.602;11.534;2022-10-16T15:19:10;19.60;94.10
33207;DHT22;19565;46.602;11.534;2022-10-16T15:21:38;19.60;94.30
33207;DHT22;19565;46.602;11.534;2022-10-16T15:24:11;19.50;94.40
33207;DHT22;19565;46.602;11.534;2022-10-16T15:26:45;19.50;94.60
33207;DHT22;19565;46.602;11.534;2022-10-16T15:29:15;19.40;94.80
33207;DHT22;19565;46.602;11.534;2022-10-16T15:31:43;19.40;94.90
33207;DHT22;19565;46.602;11.534;2022-10-16T15:34:12;19.40;95.00
33207;DHT22;19565;46.602;11.534;2022-10-16T15:36:40;19.40;95.20
33207;DHT22;19565;46.602;11.534;2022-10-16T15:39:13;19.30;95.30
33207;DHT22;19565;46.602;11.534;2022-10-16T15:41:41;19.20;95.50
33207;DHT22;19565;46.602;11.534;2022-10-16T15:44:10;19.20;96.00
33207;DHT22;19565;46.602;11.534;2022-10-16T15:46:39;19.20;96.30
33207;DHT22;19565;46.602;11.534;2022-10-16T15:49:08;19.10;96.30
33207;DHT22;19565;46.602;11.534;2022-10-16T15:51:38;19.10;96.40
33207;DHT22;19565;46.602;11.534;2022-10-16T15:54:06;19.00;96.80